hwlogo.jpg (8581 bytes)
Home Your Weather Products Services Weather On Your Site Contact
HW Version Logo
Weather Info
Your Weather (Options)
Canadian Weather
International Weather
Enter your " Place, State", US Zip Code or ICAO:  
Forecast Information Radar Information
Borden, Canada  Lat: 44.25N, Lon: 79.92W
ICAO Used: CYBN
Current Conditions
Updated: 12:00 AM GMT-7 MON FEB 19 2018
Sun & Moon Information
Clear
Clear
Temp: -2°C
Humidity: 86%
Wind Speed: SSE 8 MPH
Barometer: 1019 mb
Dewpoint: -4°C
Heat Index: -2°C
Wind Chill: -7°C
Civil Twilight: 4:45 AM GMT-7 Moon Phase:
Waxing Crescent Moon
Sunrise: 5:15 AM GMT-7
Sunset: 3:51 PM GMT-7
Civil Twilight: 4:20 PM GMT-7
Forecast for Borden, ON, Canada:
(Forecast based on TAF for )
0200 PM GMT-7 MON FEB 19 2018
  
AFTERNOON EVENING OVERNIGHT
Fair Fair Fair
ZoneCast:
Dated: 0200 PM GMT-7 MON FEB 19 2018
Afternoon...Becoming fair with winds from the south at 12 mph.

Evening...Fair with winds from the south at 12 mph.

Overnight...Fair with winds from the south at 12 mph. Turning mostly cloudy with winds from the south at 14 mph.

Original Encoded TAF:
Dated: 0200 PM GMT-7 MON FEB 19 2018
2018/02/18 18:33
TAF TAF CYBN 181730Z 1818/1906 25008KT P6SM BKN030 OVC050 
      BECMG 1821/1823 18010KT 
     FM190000 19012KT P6SM SCT030 BKN120 
      RMK FCST BASED ON AUTO OBS. NXT FCST BY 190000Z